Time;durP1;ratioP1;P1;durP2;ratioP2;P2;SDS_P1;SDS_P2;PMS_P1;PMS_P2;Temp;Humidity;BMP_temperature;BMP_pressure;BME280_temperature;BME280_humidity;BME280_pressure;Samples;Min_cycle;Max_cycle;Signal;HPM_P1;HPM_P2
2023/05/22 00:00:53;;;;;;;;;;;;;;;12.65;63.73;102407.53;4993420;28;19914;-65
2023/05/22 00:03:19;;;;;;;;;;;;;;;12.65;63.36;102400.38;4993634;28;19961;-64
2023/05/22 00:05:44;;;;;;;;;;;;;;;12.68;63.85;102404.59;4993724;28;19918;-66
2023/05/22 00:08:10;;;;;;;;;;;;;;;12.73;63.93;102406.88;4993485;28;20017;-62
2023/05/22 00:10:38;;;;;;;;;;;;;;;12.76;63.99;102401.25;4993436;28;19920;-64
2023/05/22 00:13:04;;;;;;;;;;;;;;;12.80;63.35;102403.50;4975772;28;20341;-66
2023/05/22 00:15:30;;;;;;;;;;;;;;;12.83;62.39;102399.72;4975718;28;19961;-62
2023/05/22 00:17:55;;;;;;;;;;;;;;;12.84;62.85;102399.56;4992957;28;20024;-65
2023/05/22 00:20:20;;;;;;;;;;;;;;;12.83;62.93;102403.25;4993654;28;20012;-65
2023/05/22 00:22:47;;;;;;;;;;;;;;;12.79;63.12;102396.47;4993436;28;20008;-66
2023/05/22 00:25:14;;;;;;;;;;;;;;;12.75;63.77;102394.22;4993359;28;19914;-65
2023/05/22 00:27:39;;;;;;;;;;;;;;;12.71;63.75;102393.63;4993034;28;19976;-64
2023/05/22 00:30:06;;;;;;;;;;;;;;;12.67;63.66;102398.41;4993222;28;20366;-65
2023/05/22 00:32:31;;;;;;;;;;;;;;;12.64;63.66;102396.00;4975567;28;20281;-64
2023/05/22 00:34:57;;;;;;;;;;;;;;;12.64;63.59;102397.81;4993300;28;19943;-64
2023/05/22 00:37:22;;;;;;;;;;;;;;;12.66;63.44;102399.38;4993566;28;19917;-64
2023/05/22 00:39:47;;;;;;;;;;;;;;;12.66;64.13;102393.19;4993612;28;20009;-64
2023/05/22 00:42:13;;;;;;;;;;;;;;;12.70;63.24;102397.28;4975693;28;19963;-63
2023/05/22 00:44:38;;;;;;;;;;;;;;;12.72;62.95;102395.31;4992791;28;19914;-61
2023/05/22 00:47:04;;;;;;;;;;;;;;;12.70;63.11;102386.59;4992958;28;19957;-64
2023/05/22 00:49:29;;;;;;;;;;;;;;;12.69;63.49;102388.41;4975783;28;19918;-64
2023/05/22 00:51:54;;;;;;;;;;;;;;;12.66;63.46;102386.00;4993414;28;19939;-64
2023/05/22 00:54:20;;;;;;;;;;;;;;;12.67;63.08;102377.00;4993546;28;20017;-63
2023/05/22 00:56:47;;;;;;;;;;;;;;;12.65;63.28;102376.31;4993234;28;19924;-66
2023/05/22 00:59:13;;;;;;;;;;;;;;;12.64;63.34;102371.94;4993053;28;19914;-65
2023/05/22 01:01:40;;;;;;;;;;;;;;;12.64;63.11;102366.59;4992857;28;19913;-65
2023/05/22 01:04:08;;;;;;;;;;;;;;;12.64;63.78;102365.75;4993212;28;19913;-63
2023/05/22 01:06:34;;;;;;;;;;;;;;;12.63;63.04;102370.25;4993016;28;19918;-63
2023/05/22 01:08:59;;;;;;;;;;;;;;;12.62;63.15;102365.91;4993269;28;19960;-62
2023/05/22 01:11:29;;;;;;;;;;;;;;;12.63;63.25;102364.91;4992853;28;19914;-66
2023/05/22 01:14:13;;;;;;;;;;;;;;;12.63;63.37;102364.06;4992703;28;20363;-64
2023/05/22 01:16:51;;;;;;;;;;;;;;;12.60;64.22;102367.84;4993273;28;19921;-63
2023/05/22 01:19:32;;;;;;;;;;;;;;;12.60;63.95;102375.03;4976831;28;19925;-65
2023/05/22 01:22:20;;;;;;;;;;;;;;;12.56;65.15;102385.16;4995401;28;19933;-66
2023/05/22 01:25:04;;;;;;;;;;;;;;;12.53;64.96;102390.78;4996211;28;19922;-66
2023/05/22 01:27:44;;;;;;;;;;;;;;;12.53;64.01;102385.44;4993233;28;19914;-67
2023/05/22 01:30:29;;;;;;;;;;;;;;;12.52;63.91;102378.41;4992783;28;19913;-67
2023/05/22 01:32:55;;;;;;;;;;;;;;;12.53;64.05;102389.94;4992548;28;19914;-66
2023/05/22 01:35:20;;;;;;;;;;;;;;;12.53;64.32;102369.41;4995061;28;19932;-68
2023/05/22 01:37:47;;;;;;;;;;;;;;;12.55;64.24;102382.63;4996868;28;19914;-67
2023/05/22 01:40:12;;;;;;;;;;;;;;;12.54;64.63;102376.44;4996419;28;20309;-68
2023/05/22 01:42:40;;;;;;;;;;;;;;;12.56;64.67;102378.97;4996672;28;20342;-66
2023/05/22 01:45:07;;;;;;;;;;;;;;;12.64;64.26;102376.44;4996295;28;19921;-66
2023/05/22 01:47:34;;;;;;;;;;;;;;;12.68;65.06;102370.69;4997127;28;20020;-67
2023/05/22 01:50:00;;;;;;;;;;;;;;;12.75;64.17;102367.50;4998694;28;19963;-68
2023/05/22 01:52:43;;;;;;;;;;;;;;;12.76;65.68;102377.19;4997215;28;20008;-69
2023/05/22 01:55:12;;;;;;;;;;;;;;;12.74;64.92;102366.66;4998942;28;19921;-68
2023/05/22 01:57:40;;;;;;;;;;;;;;;12.72;65.40;102360.56;4998639;28;19921;-68
2023/05/22 02:00:12;;;;;;;;;;;;;;;12.74;65.42;102363.13;4998906;28;19922;-68
2023/05/22 02:02:41;;;;;;;;;;;;;;;12.76;64.40;102363.84;4997416;28;19925;-72
2023/05/22 02:05:07;;;;;;;;;;;;;;;12.74;66.02;102360.44;4997155;28;19914;-69
2023/05/22 02:07:35;;;;;;;;;;;;;;;12.74;65.69;102352.44;4997984;28;19913;-67
2023/05/22 02:10:02;;;;;;;;;;;;;;;12.77;65.42;102357.50;4978425;28;19965;-66
2023/05/22 02:12:27;;;;;;;;;;;;;;;12.79;66.64;102360.88;4995098;28;20040;-66
2023/05/22 02:14:53;;;;;;;;;;;;;;;12.81;65.71;102357.06;4978425;28;20012;-67
2023/05/22 02:17:19;;;;;;;;;;;;;;;12.79;66.42;102360.88;4996136;28;19917;-66
2023/05/22 02:19:44;;;;;;;;;;;;;;;12.83;65.00;102356.94;4995514;28;19969;-66
2023/05/22 02:22:12;;;;;;;;;;;;;;;12.86;65.24;102348.63;4995352;28;19913;-66
2023/05/22 02:24:40;;;;;;;;;;;;;;;12.91;65.06;102335.69;4995710;28;19924;-69
2023/05/22 02:27:06;;;;;;;;;;;;;;;12.94;64.33;102332.72;5001319;28;19920;-64
2023/05/22 02:29:31;;;;;;;;;;;;;;;12.98;64.43;102336.81;5007444;28;20001;-66
2023/05/22 02:31:56;;;;;;;;;;;;;;;13.05;63.53;102332.63;5010090;28;19921;-65
2023/05/22 02:34:22;;;;;;;;;;;;;;;13.11;63.50;102332.06;5005139;28;19960;-65
2023/05/22 02:36:49;;;;;;;;;;;;;;;13.15;63.16;102341.47;4989043;28;19940;-66
2023/05/22 02:39:16;;;;;;;;;;;;;;;13.21;62.65;102338.25;5007086;28;19914;-67
2023/05/22 02:41:41;;;;;;;;;;;;;;;13.24;63.01;102337.97;5006723;28;20321;-70
2023/05/22 02:44:07;;;;;;;;;;;;;;;13.27;62.59;102327.00;5011514;28;19925;-65
2023/05/22 02:46:32;;;;;;;;;;;;;;;13.30;62.40;102326.72;5004658;28;19930;-65
2023/05/22 02:48:57;;;;;;;;;;;;;;;13.32;62.40;102327.44;5011158;28;19917;-67
2023/05/22 02:51:23;;;;;;;;;;;;;;;13.33;62.38;102326.44;5007493;28;19913;-68
2023/05/22 02:53:48;;;;;;;;;;;;;;;13.38;62.07;102328.69;5005361;28;19975;-67
2023/05/22 02:56:14;;;;;;;;;;;;;;;13.38;62.19;102338.53;4986696;28;20013;-67
2023/05/22 02:58:40;;;;;;;;;;;;;;;13.38;62.53;102339.38;5005987;28;19987;-67
2023/05/22 03:01:05;;;;;;;;;;;;;;;13.41;62.62;102340.94;4990143;28;20417;-67
2023/05/22 03:03:32;;;;;;;;;;;;;;;13.42;62.47;102356.00;5006107;28;19956;-68
2023/05/22 03:06:00;;;;;;;;;;;;;;;13.47;61.68;102348.38;5005786;28;19918;-67
2023/05/22 03:08:27;;;;;;;;;;;;;;;13.51;61.16;102366.69;5004432;28;19913;-68
2023/05/22 03:10:52;;;;;;;;;;;;;;;13.59;60.71;102360.66;5003899;28;20007;-68
2023/05/22 03:13:18;;;;;;;;;;;;;;;13.58;60.21;102366.94;5009615;28;19914;-67
2023/05/22 03:15:43;;;;;;;;;;;;;;;13.58;60.26;102366.94;5006702;28;19914;-67
2023/05/22 03:18:09;;;;;;;;;;;;;;;13.58;60.39;102357.09;4970425;28;20004;-68
2023/05/22 03:20:34;;;;;;;;;;;;;;;13.47;60.68;102369.78;5004535;28;20269;-68
2023/05/22 03:22:59;;;;;;;;;;;;;;;13.43;60.80;102368.41;5002588;28;20345;-68
2023/05/22 03:25:25;;;;;;;;;;;;;;;13.41;60.81;102359.66;5004800;28;19963;-68
2023/05/22 03:27:50;;;;;;;;;;;;;;;13.33;61.74;102368.41;5006834;28;20357;-66
2023/05/22 03:30:15;;;;;;;;;;;;;;;13.17;62.71;102366.28;5007870;28;19913;-67
2023/05/22 03:32:41;;;;;;;;;;;;;;;13.10;63.29;102357.09;5005241;28;19920;-68
2023/05/22 03:35:06;;;;;;;;;;;;;;;12.99;64.37;102370.59;5001959;28;19980;-67
2023/05/22 03:37:32;;;;;;;;;;;;;;;12.95;64.17;102358.50;4991241;28;19913;-66
2023/05/22 03:39:57;;;;;;;;;;;;;;;12.98;63.48;102369.75;5003909;28;20401;-67
2023/05/22 03:42:22;;;;;;;;;;;;;;;12.97;65.56;102361.88;5002509;28;19921;-67
2023/05/22 03:44:48;;;;;;;;;;;;;;;13.01;64.63;102365.97;5002586;28;19914;-69
2023/05/22 03:47:14;;;;;;;;;;;;;;;13.01;66.10;102368.66;5004193;28;19917;-67
2023/05/22 03:49:39;;;;;;;;;;;;;;;13.06;65.99;102355.69;5004917;28;19914;-68
2023/05/22 03:52:05;;;;;;;;;;;;;;;13.12;64.57;102365.84;5003199;28;20025;-66
2023/05/22 03:54:30;;;;;;;;;;;;;;;13.23;64.43;102363.03;5001847;28;20012;-66
2023/05/22 03:56:55;;;;;;;;;;;;;;;13.35;64.47;102363.75;5005651;28;20012;-68
2023/05/22 03:59:21;;;;;;;;;;;;;;;13.43;65.04;102363.88;5006298;28;19918;-68
2023/05/22 04:01:47;;;;;;;;;;;;;;;13.46;65.40;102378.81;5002737;28;19945;-67
2023/05/22 04:04:13;;;;;;;;;;;;;;;13.36;66.10;102381.50;5004132;28;20429;-65
2023/05/22 04:06:41;;;;;;;;;;;;;;;13.27;66.92;102375.16;5005357;28;20009;-65
2023/05/22 04:09:10;;;;;;;;;;;;;;;13.25;67.20;102373.59;5001902;28;19925;-68
2023/05/22 04:11:39;;;;;;;;;;;;;;;13.17;68.24;102376.09;5008914;28;20307;-66
2023/05/22 04:14:05;;;;;;;;;;;;;;;13.13;68.57;102382.72;5008519;28;19913;-67
2023/05/22 04:16:30;;;;;;;;;;;;;;;13.10;69.04;102375.84;4998267;28;19914;-68
2023/05/22 04:18:56;;;;;;;;;;;;;;;13.01;73.84;102376.69;4993005;28;19914;-68
2023/05/22 04:21:23;;;;;;;;;;;;;;;12.97;71.15;102383.25;5000065;28;19921;-68
2023/05/22 04:23:48;;;;;;;;;;;;;;;12.85;76.06;102377.22;4994657;28;19921;-65
2023/05/22 04:26:16;;;;;;;;;;;;;;;12.73;76.49;102378.31;4993091;28;19914;-70
2023/05/22 04:28:44;;;;;;;;;;;;;;;12.69;77.38;102375.03;4993143;28;19914;-65
2023/05/22 04:31:13;;;;;;;;;;;;;;;12.65;76.59;102370.97;4994449;28;19913;-70
2023/05/22 04:33:38;;;;;;;;;;;;;;;12.63;78.76;102380.09;4990902;28;20008;-71
2023/05/22 04:36:05;;;;;;;;;;;;;;;12.59;79.72;102368.84;4996799;28;19945;-67
2023/05/22 04:38:36;;;;;;;;;;;;;;;12.51;82.88;102360.66;4979026;28;20358;-71
2023/05/22 04:41:02;;;;;;;;;;;;;;;12.44;81.18;102348.84;4997448;28;20021;-70
2023/05/22 04:43:28;;;;;;;;;;;;;;;12.40;86.34;102352.75;4997330;28;19925;-74
2023/05/22 04:45:55;;;;;;;;;;;;;;;12.36;83.81;102337.97;4999207;28;19918;-71
2023/05/22 04:48:21;;;;;;;;;;;;;;;12.39;85.48;102340.38;4994808;28;19922;-66
2023/05/22 04:50:48;;;;;;;;;;;;;;;12.49;83.90;102330.56;4993069;28;19924;-64
2023/05/22 04:53:13;;;;;;;;;;;;;;;12.58;83.89;102313.69;4993136;28;19948;-64
2023/05/22 04:55:38;;;;;;;;;;;;;;;12.67;85.00;102315.53;4993676;28;20113;-63
2023/05/22 04:58:04;;;;;;;;;;;;;;;12.69;90.17;102299.34;4993636;28;19914;-63
2023/05/22 05:00:30;;;;;;;;;;;;;;;12.73;89.49;102321.34;5004627;28;19917;-65
2023/05/22 05:02:56;;;;;;;;;;;;;;;12.79;88.60;102310.09;4995424;28;19921;-66
2023/05/22 05:05:22;;;;;;;;;;;;;;;12.86;91.75;102311.19;5012077;28;19920;-63
2023/05/22 05:07:48;;;;;;;;;;;;;;;12.94;92.97;102303.31;5013541;28;19913;-64
2023/05/22 05:10:13;;;;;;;;;;;;;;;13.00;94.92;102297.41;5015067;28;19920;-67
2023/05/22 05:12:39;;;;;;;;;;;;;;;13.13;93.97;102302.47;4999329;28;19913;-64
2023/05/22 05:15:05;;;;;;;;;;;;;;;13.42;93.72;102302.47;5017484;28;19936;-66
2023/05/22 05:17:30;;;;;;;;;;;;;;;13.79;93.74;102297.16;5015948;28;19913;-65
2023/05/22 05:19:55;;;;;;;;;;;;;;;14.30;89.14;102293.13;4998606;28;19922;-64
2023/05/22 05:22:21;;;;;;;;;;;;;;;14.95;85.98;102294.69;5015812;28;19994;-64
2023/05/22 05:24:46;;;;;;;;;;;;;;;15.48;82.33;102291.06;5016195;28;19921;-66
2023/05/22 05:27:11;;;;;;;;;;;;;;;15.84;79.78;102288.28;5015983;28;20318;-66
2023/05/22 05:29:37;;;;;;;;;;;;;;;16.13;79.29;102280.69;5015704;28;20441;-66
2023/05/22 05:32:02;;;;;;;;;;;;;;;16.35;78.04;102284.66;5015404;28;20056;-64
2023/05/22 05:34:28;;;;;;;;;;;;;;;16.45;77.52;102273.75;5015618;28;19928;-66
2023/05/22 05:36:56;;;;;;;;;;;;;;;16.45;77.93;102279.13;5015761;28;19913;-62
2023/05/22 05:39:21;;;;;;;;;;;;;;;16.45;78.06;102277.28;5015854;28;19920;-66
2023/05/22 05:41:46;;;;;;;;;;;;;;;16.39;78.73;102268.03;4986133;28;19918;-64
2023/05/22 05:44:11;;;;;;;;;;;;;;;16.41;78.53;102274.06;4996149;28;20008;-63
2023/05/22 05:46:37;;;;;;;;;;;;;;;16.54;78.00;102273.63;4995782;28;19972;-66
2023/05/22 05:49:09;;;;;;;;;;;;;;;16.42;79.73;102275.75;4995989;28;19918;-65
2023/05/22 05:51:35;;;;;;;;;;;;;;;16.39;80.05;102281.47;4996926;28;19921;-65
2023/05/22 05:54:01;;;;;;;;;;;;;;;16.23;82.60;102276.06;4997280;28;19913;-65
2023/05/22 05:56:26;;;;;;;;;;;;;;;16.08;82.82;102280.34;4996277;28;19921;-65
2023/05/22 05:58:51;;;;;;;;;;;;;;;16.04;82.28;102271.78;4993906;28;19921;-66
2023/05/22 06:01:17;;;;;;;;;;;;;;;16.09;85.61;102271.28;4995918;28;20030;-69
2023/05/22 06:03:43;;;;;;;;;;;;;;;16.11;85.42;102271.97;4995383;28;20350;-67
2023/05/22 06:06:09;;;;;;;;;;;;;;;16.11;83.82;102271.97;4995309;28;19975;-67
2023/05/22 06:08:34;;;;;;;;;;;;;;;16.15;83.86;102278.69;4995140;28;20398;-67
2023/05/22 06:11:00;;;;;;;;;;;;;;;16.25;82.69;102274.03;4995467;28;19914;-67
2023/05/22 06:13:25;;;;;;;;;;;;;;;16.31;83.01;102278.75;4995255;28;20305;-64
2023/05/22 06:15:51;;;;;;;;;;;;;;;16.33;83.08;102268.69;4995194;28;19921;-65
2023/05/22 06:18:16;;;;;;;;;;;;;;;16.39;84.19;102272.56;4977990;28;20444;-65
2023/05/22 06:20:42;;;;;;;;;;;;;;;16.37;84.40;102266.50;4995681;28;19914;-67
2023/05/22 06:23:07;;;;;;;;;;;;;;;16.47;83.53;102263.66;4995444;28;20381;-65
2023/05/22 06:25:33;;;;;;;;;;;;;;;16.61;84.95;102263.03;4977523;28;20017;-67
2023/05/22 06:27:59;;;;;;;;;;;;;;;16.66;84.40;102263.41;4994858;28;20385;-67
2023/05/22 06:30:25;;;;;;;;;;;;;;;16.72;83.86;102260.03;4995073;28;19913;-64
2023/05/22 06:32:51;;;;;;;;;;;;;;;16.77;83.73;102263.09;4994845;28;20485;-67
2023/05/22 06:35:17;;;;;;;;;;;;;;;16.75;84.76;102259.72;4995008;28;19914;-65
2023/05/22 06:37:42;;;;;;;;;;;;;;;16.67;84.55;102262.41;4994640;28;19952;-63
2023/05/22 06:40:09;;;;;;;;;;;;;;;16.49;85.51;102259.00;4994696;28;20578;-65
2023/05/22 06:42:35;;;;;;;;;;;;;;;16.41;84.05;102257.94;4994739;28;20354;-65
2023/05/22 06:45:01;;;;;;;;;;;;;;;16.43;85.82;102260.47;4977142;28;20001;-63
2023/05/22 06:47:26;;;;;;;;;;;;;;;16.65;85.40;102253.63;4994627;28;19918;-66
2023/05/22 06:49:52;;;;;;;;;;;;;;;17.05;82.75;102255.50;4994662;28;19914;-67
2023/05/22 06:52:17;;;;;;;;;;;;;;;17.38;81.88;102259.03;4994652;28;20366;-64
2023/05/22 06:54:44;;;;;;;;;;;;;;;17.50;80.19;102254.97;4993772;28;20259;-64
2023/05/22 06:57:10;;;;;;;;;;;;;;;17.55;79.57;102254.44;4994187;28;19918;-65
2023/05/22 06:59:35;;;;;;;;;;;;;;;17.49;78.54;102257.84;4977040;28;19920;-70
2023/05/22 07:02:03;;;;;;;;;;;;;;;17.34;78.42;102249.59;4977341;28;19924;-66
2023/05/22 07:04:28;;;;;;;;;;;;;;;17.21;79.74;102242.06;4994474;28;19913;-65
2023/05/22 07:06:54;;;;;;;;;;;;;;;17.09;79.09;102240.72;4994246;28;19914;-64
2023/05/22 07:09:19;;;;;;;;;;;;;;;17.06;79.62;102243.78;4994164;28;19948;-65
2023/05/22 07:11:45;;;;;;;;;;;;;;;17.08;79.42;102243.59;4994202;28;19964;-64
2023/05/22 07:14:11;;;;;;;;;;;;;;;16.99;79.40;102240.88;4994139;28;19929;-65
2023/05/22 07:16:37;;;;;;;;;;;;;;;16.99;79.47;102238.19;4993742;28;19940;-63
2023/05/22 07:19:02;;;;;;;;;;;;;;;16.78;78.98;102202.91;4993860;28;19914;-65
2023/05/22 07:21:30;;;;;;;;;;;;;;;17.13;78.47;102243.91;4994753;28;19924;-66
2023/05/22 07:23:56;;;;;;;;;;;;;;;17.16;78.38;102247.13;4976845;28;19914;-64
2023/05/22 07:26:21;;;;;;;;;;;;;;;17.15;78.91;102239.22;4993847;28;19914;-65
2023/05/22 07:28:47;;;;;;;;;;;;;;;17.07;79.40;102236.53;4993812;28;19991;-65
2023/05/22 07:31:12;;;;;;;;;;;;;;;16.97;80.07;102248.28;4993375;28;19968;-65
2023/05/22 07:33:37;;;;;;;;;;;;;;;16.91;80.17;102222.06;4993284;28;20365;-65
2023/05/22 07:36:03;;;;;;;;;;;;;;;16.93;80.67;102230.81;4993822;28;20499;-65
2023/05/22 07:38:28;;;;;;;;;;;;;;;17.09;81.08;102226.44;4976249;28;19914;-64
2023/05/22 07:40:54;;;;;;;;;;;;;;;17.33;79.66;102234.44;4993601;28;19918;-65
2023/05/22 07:43:20;;;;;;;;;;;;;;;17.54;79.77;102229.34;4993686;28;19921;-64
2023/05/22 07:45:45;;;;;;;;;;;;;;;17.65;80.11;102231.69;4993803;28;19965;-64
2023/05/22 07:48:10;;;;;;;;;;;;;;;17.85;78.87;102228.59;4960314;28;20321;-63
2023/05/22 07:50:36;;;;;;;;;;;;;;;18.00;78.14;102228.72;4993753;28;19917;-66
2023/05/22 07:53:03;;;;;;;;;;;;;;;17.96;78.70;102217.47;4976139;28;19914;-64
2023/05/22 07:55:28;;;;;;;;;;;;;;;17.96;78.56;102209.38;4993660;28;19922;-64
2023/05/22 07:57:54;;;;;;;;;;;;;;;17.96;78.82;102212.06;4993380;28;20380;-68
2023/05/22 08:00:19;;;;;;;;;;;;;;;17.94;78.92;102211.41;4993622;28;20025;-65
2023/05/22 08:02:45;;;;;;;;;;;;;;;18.05;79.01;102207.47;4993595;28;19924;-67
2023/05/22 08:05:10;;;;;;;;;;;;;;;18.31;78.18;102209.84;4993717;28;19950;-66
2023/05/22 08:07:36;;;;;;;;;;;;;;;18.51;77.48;102208.38;4993464;28;19921;-64
2023/05/22 08:10:02;;;;;;;;;;;;;;;18.57;77.23;102211.19;4993168;28;19914;-64
2023/05/22 08:12:29;;;;;;;;;;;;;;;18.63;76.44;102206.94;4993060;28;19961;-66
2023/05/22 08:14:54;;;;;;;;;;;;;;;18.63;75.54;102208.81;4975596;28;19960;-67
2023/05/22 08:17:19;;;;;;;;;;;;;;;18.70;75.33;102205.19;4993243;28;19914;-65
2023/05/22 08:19:45;;;;;;;;;;;;;;;18.78;75.91;102197.03;4993276;28;20412;-65
2023/05/22 08:22:10;;;;;;;;;;;;;;;18.69;75.56;102208.09;4993039;28;19936;-66
2023/05/22 08:24:35;;;;;;;;;;;;;;;18.62;76.23;102197.19;4992366;28;19914;-64
2023/05/22 08:27:01;;;;;;;;;;;;;;;18.50;75.95;102206.66;4992531;28;19937;-62
2023/05/22 08:29:27;;;;;;;;;;;;;;;18.39;75.78;102201.69;4992757;28;19914;-65
2023/05/22 08:31:55;;;;;;;;;;;;;;;18.27;77.63;102190.50;4975252;28;19997;-69
2023/05/22 08:34:20;;;;;;;;;;;;;;;18.32;76.68;102189.94;4992978;28;19914;-65
2023/05/22 08:36:46;;;;;;;;;;;;;;;18.46;76.60;102190.00;4993103;28;19920;-66
2023/05/22 08:39:11;;;;;;;;;;;;;;;18.69;76.34;102186.50;4992771;28;20370;-66
2023/05/22 08:41:37;;;;;;;;;;;;;;;18.82;74.86;102192.97;4992709;28;19960;-64
2023/05/22 08:44:02;;;;;;;;;;;;;;;18.76;74.33;102196.38;4992577;28;19921;-68
2023/05/22 08:46:29;;;;;;;;;;;;;;;18.72;74.46;102195.06;4995236;28;19921;-68
2023/05/22 08:48:55;;;;;;;;;;;;;;;18.69;74.17;102189.19;4996841;28;20008;-67
2023/05/22 08:51:25;;;;;;;;;;;;;;;18.80;74.68;102189.63;4996855;28;19926;-67
2023/05/22 08:53:53;;;;;;;;;;;;;;;18.97;73.74;102195.69;4996847;28;19921;-65
2023/05/22 08:56:18;;;;;;;;;;;;;;;19.06;72.83;102197.28;4996836;28;19972;-67
2023/05/22 08:58:45;;;;;;;;;;;;;;;19.22;72.96;102190.06;4996863;28;19961;-66
2023/05/22 09:01:10;;;;;;;;;;;;;;;19.36;72.14;102187.34;4996715;28;20325;-68
2023/05/22 09:03:36;;;;;;;;;;;;;;;19.47;71.87;102181.50;4997078;28;20052;-67
2023/05/22 09:06:01;;;;;;;;;;;;;;;19.44;72.26;102189.97;4999792;28;19965;-72
2023/05/22 09:08:27;;;;;;;;;;;;;;;19.34;71.11;102186.69;4998246;28;19914;-65
2023/05/22 09:10:56;;;;;;;;;;;;;;;19.36;70.74;102187.34;4997902;28;19988;-67
2023/05/22 09:13:25;;;;;;;;;;;;;;;19.44;71.19;102186.44;4998192;28;19918;-68
2023/05/22 09:15:50;;;;;;;;;;;;;;;19.53;70.68;102177.25;4996415;28;19913;-69
2023/05/22 09:18:15;;;;;;;;;;;;;;;19.43;71.04;102180.19;4996939;28;19961;-68
2023/05/22 09:20:41;;;;;;;;;;;;;;;19.25;71.09;102177.00;4996609;28;19941;-71
2023/05/22 09:23:09;;;;;;;;;;;;;;;19.15;71.71;102161.09;4996516;28;19913;-68
2023/05/22 09:25:35;;;;;;;;;;;;;;;18.92;72.15;102170.28;4978825;28;19914;-69
2023/05/22 09:28:00;;;;;;;;;;;;;;;18.78;72.78;102164.66;4996061;28;19914;-70
2023/05/22 09:30:25;;;;;;;;;;;;;;;18.81;72.87;102166.16;4996156;28;20404;-65
2023/05/22 09:32:51;;;;;;;;;;;;;;;18.85;73.81;102171.00;4996309;28;20381;-66
2023/05/22 09:35:18;;;;;;;;;;;;;;;18.90;73.59;102178.56;4996160;28;19965;-68
2023/05/22 09:37:43;;;;;;;;;;;;;;;19.04;73.16;102163.41;4995943;28;19914;-69
2023/05/22 09:40:12;;;;;;;;;;;;;;;19.33;71.93;102160.72;4995901;28;20257;-69
2023/05/22 09:42:38;;;;;;;;;;;;;;;19.65;70.57;102156.81;4995560;28;19929;-66
2023/05/22 09:45:04;;;;;;;;;;;;;;;19.91;70.25;102150.88;4995716;28;20310;-67
2023/05/22 09:47:30;;;;;;;;;;;;;;;20.03;67.53;102146.69;4995881;28;19917;-63
2023/05/22 09:49:57;;;;;;;;;;;;;;;20.06;68.06;102148.16;4996005;28;19914;-65
2023/05/22 09:52:22;;;;;;;;;;;;;;;20.15;66.62;102138.03;4995791;28;19941;-67
2023/05/22 09:54:54;;;;;;;;;;;;;;;20.10;67.60;102134.06;4995129;28;20380;-65
2023/05/22 09:57:20;;;;;;;;;;;;;;;20.10;66.92;102135.91;4995897;28;19921;-65
2023/05/22 09:59:57;;;;;;;;;;;;;;;19.96;65.94;102126.84;4995593;28;19913;-65
2023/05/22 10:02:26;;;;;;;;;;;;;;;19.94;65.12;102123.47;4995803;28;19926;-66
2023/05/22 10:04:52;;;;;;;;;;;;;;;20.15;63.91;102117.25;4995719;28;19938;-66
2023/05/22 10:07:21;;;;;;;;;;;;;;;20.55;64.21;102104.13;4995451;28;20413;-65
2023/05/22 10:09:50;;;;;;;;;;;;;;;20.81;63.15;102108.88;4995586;28;19928;-65
2023/05/22 10:12:18;;;;;;;;;;;;;;;21.08;62.34;102104.47;4995709;28;19968;-66
2023/05/22 10:14:44;;;;;;;;;;;;;;;21.09;60.75;102106.16;4978981;28;20238;-68
2023/05/22 10:17:11;;;;;;;;;;;;;;;21.03;60.76;102103.19;4995470;28;19914;-63
2023/05/22 10:19:36;;;;;;;;;;;;;;;21.00;54.60;102103.59;4996204;28;20342;-66
2023/05/22 10:22:02;;;;;;;;;;;;;;;20.95;53.44;102097.94;4994998;28;19953;-66
2023/05/22 10:24:28;;;;;;;;;;;;;;;20.89;52.85;102100.63;4995293;28;19913;-70
2023/05/22 10:26:53;;;;;;;;;;;;;;;20.88;52.53;102093.53;4995966;28;20008;-67
2023/05/22 10:29:23;;;;;;;;;;;;;;;20.76;51.83;102095.09;4995047;28;19921;-70
2023/05/22 10:31:48;;;;;;;;;;;;;;;20.75;52.16;102088.84;4994803;28;19973;-68
2023/05/22 10:34:23;;;;;;;;;;;;;;;20.79;50.49;102083.88;4994940;28;19922;-67
2023/05/22 10:36:57;;;;;;;;;;;;;;;20.64;51.27;102081.28;4997789;28;19924;-67
2023/05/22 10:39:33;;;;;;;;;;;;;;;20.41;52.24;102076.09;5003593;28;20408;-66
2023/05/22 10:41:59;;;;;;;;;;;;;;;20.36;53.79;102063.13;5004168;28;19914;-66
2023/05/22 10:44:24;;;;;;;;;;;;;;;20.33;53.08;102078.94;5003028;28;19913;-66
2023/05/22 10:46:50;;;;;;;;;;;;;;;20.26;52.39;102067.22;5004947;28;19918;-68
2023/05/22 10:49:24;;;;;;;;;;;;;;;20.11;52.09;102054.59;5002064;28;20426;-66
2023/05/22 10:51:56;;;;;;;;;;;;;;;20.11;52.53;102053.75;5005095;28;19982;-68
2023/05/22 10:54:36;;;;;;;;;;;;;;;20.04;52.36;102058.28;5001705;28;19914;-66
2023/05/22 10:57:08;;;;;;;;;;;;;;;19.97;51.63;102050.09;5004643;28;19914;-67
2023/05/22 10:59:33;;;;;;;;;;;;;;;19.90;51.78;102057.28;5001421;28;19917;-65
2023/05/22 11:01:59;;;;;;;;;;;;;;;19.80;52.47;102048.66;5004678;28;19938;-66
2023/05/22 11:04:25;;;;;;;;;;;;;;;19.78;52.93;102043.44;5014197;28;20284;-67
2023/05/22 11:07:04;;;;;;;;;;;;;;;19.88;53.36;102036.88;5002073;28;19925;-66
2023/05/22 11:09:42;;;;;;;;;;;;;;;20.04;53.49;102033.94;5005379;28;19921;-66
2023/05/22 11:12:10;;;;;;;;;;;;;;;20.25;53.18;102023.09;5006816;28;19920;-65
2023/05/22 11:14:35;;;;;;;;;;;;;;;20.33;52.03;102030.22;5004872;28;20373;-68
2023/05/22 11:17:01;;;;;;;;;;;;;;;20.17;51.75;102035.91;5003534;28;19924;-66
2023/05/22 11:19:26;;;;;;;;;;;;;;;19.98;53.38;102023.91;4986522;28;20312;-67
2023/05/22 11:21:52;;;;;;;;;;;;;;;19.78;54.31;102031.81;4988015;28;20227;-67
2023/05/22 11:24:17;;;;;;;;;;;;;;;19.76;55.03;102033.88;5002673;28;20181;-67
2023/05/22 11:26:43;;;;;;;;;;;;;;;19.73;55.02;102035.09;4984253;28;19914;-69
2023/05/22 11:29:09;;;;;;;;;;;;;;;19.71;54.57;102020.09;5004854;28;19959;-65
2023/05/22 11:31:38;;;;;;;;;;;;;;;19.69;55.08;102023.00;5005851;28;19926;-65
2023/05/22 11:34:03;;;;;;;;;;;;;;;19.66;53.38;102023.38;5000024;28;19917;-67
2023/05/22 11:36:29;;;;;;;;;;;;;;;19.58;52.91;102020.78;5003099;28;19968;-67
2023/05/22 11:38:58;;;;;;;;;;;;;;;19.58;52.31;102014.53;5003920;28;20445;-64
2023/05/22 11:41:28;;;;;;;;;;;;;;;19.65;53.55;102005.47;5004802;28;19957;-66
2023/05/22 11:43:53;;;;;;;;;;;;;;;19.72;53.50;102008.25;5002116;28;19913;-66
2023/05/22 11:46:18;;;;;;;;;;;;;;;19.78;53.66;102000.19;4998712;28;19964;-65
2023/05/22 11:48:46;;;;;;;;;;;;;;;19.73;53.81;101999.94;5001739;28;20262;-67
2023/05/22 11:51:11;;;;;;;;;;;;;;;19.56;55.21;102005.78;5001577;28;19914;-67
2023/05/22 11:53:37;;;;;;;;;;;;;;;19.50;55.51;102005.50;5002137;28;19913;-64
2023/05/22 11:56:03;;;;;;;;;;;;;;;19.38;57.09;102000.78;5003603;28;19999;-64
2023/05/22 11:58:29;;;;;;;;;;;;;;;19.30;57.89;102001.72;5001696;28;19965;-66
2023/05/22 12:01:03;;;;;;;;;;;;;;;19.27;57.72;102002.09;5004170;28;19997;-65
2023/05/22 12:03:30;;;;;;;;;;;;;;;19.23;56.82;101989.16;5000562;28;19918;-68
2023/05/22 12:05:56;;;;;;;;;;;;;;;19.19;56.46;101986.03;5002618;28;19917;-65
2023/05/22 12:08:22;;;;;;;;;;;;;;;19.19;55.83;101980.63;5004511;28;20361;-64
2023/05/22 12:10:51;;;;;;;;;;;;;;;19.16;54.89;101978.31;5001871;28;19914;-65
2023/05/22 12:13:23;;;;;;;;;;;;;;;19.21;55.24;101985.81;5002495;28;19914;-66
2023/05/22 12:15:49;;;;;;;;;;;;;;;19.29;55.89;101983.00;4998274;28;20382;-65
2023/05/22 12:18:16;;;;;;;;;;;;;;;19.45;55.28;101994.44;4984113;28;19921;-66
2023/05/22 12:20:44;;;;;;;;;;;;;;;19.63;54.21;101991.31;5003777;28;20005;-64
2023/05/22 12:23:10;;;;;;;;;;;;;;;19.78;53.90;101983.16;4996301;28;19928;-67
2023/05/22 12:25:36;;;;;;;;;;;;;;;19.90;52.68;101992.41;5002430;28;19914;-67
2023/05/22 12:28:01;;;;;;;;;;;;;;;19.94;52.47;101988.28;5003026;28;20009;-66
2023/05/22 12:30:26;;;;;;;;;;;;;;;19.94;51.55;101984.72;5003907;28;19914;-64
2023/05/22 12:32:52;;;;;;;;;;;;;;;19.99;51.41;101985.84;5001941;28;19914;-65